Time;durP1;ratioP1;P1;durP2;ratioP2;P2;SDS_P1;SDS_P2;PMS_P1;PMS_P2;Temp;Humidity;BMP_temperature;BMP_pressure;BME280_temperature;BME280_humidity;BME280_pressure;Samples;Min_cycle;Max_cycle;Signal;HPM_P1;HPM_P2
2021/04/10 00:01:09;;;;;;;6.53;3.77;;;6.70;1.00;;;;;;5016010;28;20243;-62
2021/04/10 00:03:35;;;;;;;8.00;3.33;;;6.60;21.80;;;;;;5016443;28;20181;-62
2021/04/10 00:06:01;;;;;;;11.85;3.92;;;6.50;45.20;;;;;;5017591;28;20228;-62
2021/04/10 00:08:26;;;;;;;10.60;3.03;;;6.30;99.90;;;;;;5017004;28;20544;-62
2021/04/10 00:10:52;;;;;;;10.07;3.83;;;6.60;99.90;;;;;;5016440;28;20506;-62
2021/04/10 00:13:17;;;;;;;10.97;4.23;;;6.70;99.90;;;;;;5015879;28;20180;-62
2021/04/10 00:15:43;;;;;;;9.20;3.90;;;6.70;64.20;;;;;;5015599;28;20248;-62
2021/04/10 00:18:09;;;;;;;8.70;3.30;;;6.60;69.50;;;;;;5015046;28;20176;-59
2021/04/10 00:20:34;;;;;;;6.20;3.50;;;6.90;72.50;;;;;;5015060;28;20587;-59
2021/04/10 00:23:00;;;;;;;10.93;4.50;;;6.70;17.00;;;;;;5014839;28;20183;-61
2021/04/10 00:25:25;;;;;;;7.30;3.40;;;6.80;37.70;;;;;;5014759;28;20193;-61
2021/04/10 00:27:51;;;;;;;8.70;3.63;;;6.90;27.60;;;;;;5018010;28;20181;-61
2021/04/10 00:30:17;;;;;;;7.13;3.80;;;6.90;9.20;;;;;;5017743;28;20185;-61
2021/04/10 00:32:43;;;;;;;10.93;4.95;;;6.90;1.00;;;;;;5019121;28;20185;-61
2021/04/10 00:35:09;;;;;;;12.60;3.73;;;6.60;1.00;;;;;;5016078;28;20211;-62
2021/04/10 00:37:35;;;;;;;8.60;5.00;;;6.30;47.10;;;;;;5016848;28;20180;-61
2021/04/10 00:40:03;;;;;;;9.90;4.05;;;6.40;99.90;;;;;;5019760;28;20197;-61
2021/04/10 00:42:29;;;;;;;8.15;3.70;;;6.40;99.90;;;;;;5033509;28;20199;-61
2021/04/10 00:44:55;;;;;;;8.95;4.20;;;6.30;99.90;;;;;;5016099;28;20193;-61
2021/04/10 00:47:20;;;;;;;10.50;4.17;;;6.30;99.90;;;;;;5017477;28;20183;-61
2021/04/10 00:49:46;;;;;;;9.20;4.47;;;6.20;99.90;;;;;;5017750;28;20513;-61
2021/04/10 00:52:13;;;;;;;8.43;4.67;;;6.10;99.90;;;;;;5017688;28;20186;-61
2021/04/10 00:54:39;;;;;;;12.23;3.53;;;6.10;99.90;;;;;;5032717;28;20553;-61
2021/04/10 00:57:05;;;;;;;8.17;4.40;;;6.10;99.90;;;;;;5017532;28;20377;-61
2021/04/10 00:59:31;;;;;;;9.00;3.67;;;5.80;99.90;;;;;;5016576;28;20497;-61
2021/04/10 01:02:00;;;;;;;11.50;3.40;;;5.80;99.90;;;;;;5017402;28;20742;-61
2021/04/10 01:04:26;;;;;;;9.02;4.05;;;5.70;99.90;;;;;;5018185;28;20199;-61
2021/04/10 01:06:52;;;;;;;7.13;3.17;;;5.90;99.90;;;;;;5018593;28;20493;-60
2021/04/10 01:09:17;;;;;;;14.03;3.80;;;6.00;99.90;;;;;;5016799;28;20188;-64
2021/04/10 01:12:11;;;;;;;5.97;3.83;;;6.00;99.90;;;;;;5015357;28;20228;-66
2021/04/10 01:14:55;;;;;;;9.05;2.97;;;6.00;99.90;;;;;;5014608;28;20196;-64
2021/04/10 01:17:32;;;;;;;6.97;2.75;;;6.40;99.90;;;;;;5014604;28;20508;-63
2021/04/10 01:20:35;;;;;;;8.90;4.68;;;6.30;56.30;;;;;;5030485;28;20184;-64
2021/04/10 01:23:31;;;;;;;11.55;3.10;;;6.30;54.50;;;;;;5030371;28;20672;-64
2021/04/10 01:25:59;;;;;;;6.38;3.10;;;6.50;48.60;;;;;;5014610;28;20181;-64
2021/04/10 01:28:40;;;;;;;10.32;2.60;;;6.70;15.10;;;;;;5014632;28;20170;-64
2021/04/10 01:31:08;;;;;;;14.70;3.63;;;6.70;1.00;;;;;;5015678;28;20181;-64
2021/04/10 01:33:40;;;;;;;6.43;2.88;;;6.50;1.00;;;;;;5017015;28;20176;-64
2021/04/10 01:36:07;;;;;;;10.40;3.45;;;6.30;1.00;;;;;;5015229;28;20260;-64
2021/04/10 01:38:33;;;;;;;6.63;2.55;;;6.20;1.00;;;;;;5030040;28;20296;-64
2021/04/10 01:41:03;;;;;;;7.25;2.95;;;6.10;1.00;;;;;;5015451;28;20260;-64
2021/04/10 01:43:31;;;;;;;6.70;2.70;;;6.40;8.40;;;;;;5017768;28;20248;-61
2021/04/10 01:45:57;;;;;;;9.75;3.35;;;6.50;4.80;;;;;;5021928;28;20209;-62
2021/04/10 01:48:25;;;;;;;11.30;3.83;;;6.60;1.00;;;;;;5023054;28;20193;-62
2021/04/10 01:50:52;;;;;;;9.13;3.33;;;7.00;1.00;;;;;;5022387;28;20432;-59
2021/04/10 01:53:18;;;;;;;3.08;1.88;;;7.00;1.00;;;;;;5019568;28;20259;-59
2021/04/10 01:55:51;;;;;;;6.05;2.58;;;6.40;1.00;;;;;;5033919;28;20312;-62
2021/04/10 01:58:18;;;;;;;4.60;2.08;;;5.60;1.00;;;;;;5020502;28;20181;-61
2021/04/10 02:00:45;;;;;;;6.25;2.33;;;5.60;1.00;;;;;;5019395;28;20186;-61
2021/04/10 02:03:15;;;;;;;6.03;2.03;;;5.60;1.00;;;;;;5018301;28;20264;-61
2021/04/10 02:05:42;;;;;;;6.50;2.08;;;5.50;1.00;;;;;;5018873;28;20297;-61
2021/04/10 02:08:09;;;;;;;8.75;2.08;;;5.50;1.00;;;;;;5018193;28;20488;-61
2021/04/10 02:10:36;;;;;;;6.28;1.52;;;5.40;99.90;;;;;;5017800;28;20177;-61
2021/04/10 02:13:02;;;;;;;10.35;1.70;;;5.40;99.90;;;;;;5033675;28;20182;-61
2021/04/10 02:15:27;;;;;;;6.55;1.55;;;5.50;1.00;;;;;;5017177;28;20641;-61
2021/04/10 02:17:56;;;;;;;2.53;1.07;;;5.90;1.00;;;;;;5017503;28;20192;-59
2021/04/10 02:20:22;;;;;;;4.00;1.05;;;6.00;99.90;;;;;;5017863;28;20263;-59
2021/04/10 02:22:54;;;;;;;4.43;1.27;;;6.20;99.90;;;;;;5018724;28;20506;-59
2021/04/10 02:25:21;;;;;;;4.53;1.05;;;5.90;1.00;;;;;;5017451;28;20177;-59
2021/04/10 02:27:47;;;;;;;6.10;1.98;;;6.20;99.90;;;;;;5032614;28;20197;-59
2021/04/10 02:30:15;;;;;;;7.75;1.65;;;6.10;1.00;;;;;;5017238;28;20687;-62
2021/04/10 02:33:01;;;;;;;5.05;1.85;;;6.30;99.90;;;;;;5017643;28;20658;-59
2021/04/10 02:35:34;;;;;;;10.40;1.58;;;6.60;99.90;;;;;;5015788;28;20210;-64
2021/04/10 02:38:00;;;;;;;5.00;2.40;;;6.60;1.00;;;;;;5032445;28;20186;-59
2021/04/10 02:40:32;;;;;;;6.15;1.38;;;6.80;99.90;;;;;;5016872;28;20198;-64
2021/04/10 02:43:00;;;;;;;3.85;2.10;;;6.90;99.90;;;;;;5016679;28;20212;-59
2021/04/10 02:45:27;;;;;;;3.28;1.50;;;7.00;99.90;;;;;;5016480;28;20186;-59
2021/04/10 02:47:59;;;;;;;9.38;1.70;;;7.10;99.90;;;;;;5016720;28;20221;-59
2021/04/10 02:50:27;;;;;;;7.65;1.80;;;7.20;1.00;;;;;;5016639;28;20281;-59
2021/04/10 02:52:56;;;;;;;7.18;2.08;;;7.20;1.00;;;;;;5016458;28;20190;-59
2021/04/10 02:55:32;;;;;;;5.75;2.28;;;7.20;99.90;;;;;;5016248;28;20236;-59
2021/04/10 02:58:03;;;;;;;5.75;1.80;;;7.40;1.00;;;;;;5016573;28;20529;-59
2021/04/10 03:00:30;;;;;;;8.05;2.03;;;7.30;28.80;;;;;;5016395;28;20272;-59
2021/04/10 03:02:57;;;;;;;9.88;2.03;;;7.30;99.90;;;;;;5016299;28;20263;-59
2021/04/10 03:05:23;;;;;;;7.10;1.73;;;7.50;99.90;;;;;;5015949;28;20193;-65
2021/04/10 03:07:52;;;;;;;9.43;2.40;;;7.50;1.00;;;;;;5015156;28;20487;-65
2021/04/10 03:10:18;;;;;;;9.70;1.80;;;7.30;1.00;;;;;;5014838;28;20185;-65
2021/04/10 03:12:44;;;;;;;5.30;2.23;;;7.40;99.90;;;;;;5016037;28;20267;-65
2021/04/10 03:15:15;;;;;;;7.95;1.85;;;7.30;1.00;;;;;;5015866;28;20464;-59
2021/04/10 03:17:41;;;;;;;5.03;1.50;;;7.10;99.90;;;;;;5015897;28;20198;-59
2021/04/10 03:20:12;;;;;;;4.45;1.20;;;7.10;1.00;;;;;;5016041;28;20185;-59
2021/04/10 03:22:41;;;;;;;7.57;1.95;;;6.90;2.60;;;;;;5016094;28;20233;-59
2021/04/10 03:25:07;;;;;;;5.30;1.77;;;7.10;99.90;;;;;;5015619;28;20182;-59
2021/04/10 03:27:33;;;;;;;4.20;1.67;;;6.70;1.00;;;;;;5015963;28;20184;-59
2021/04/10 03:30:00;;;;;;;2.50;1.20;;;6.40;99.90;;;;;;5015759;28;20185;-59
2021/04/10 03:32:27;;;;;;;9.50;1.90;;;6.20;1.00;;;;;;5015742;28;20585;-59
2021/04/10 03:34:52;;;;;;;7.63;1.83;;;6.30;1.00;;;;;;5015476;28;20231;-59
2021/04/10 03:37:18;;;;;;;5.07;2.33;;;6.30;1.00;;;;;;5015725;28;20186;-59
2021/04/10 03:39:44;;;;;;;5.20;1.90;;;6.30;93.20;;;;;;5015453;28;20205;-59
2021/04/10 03:42:10;;;;;;;5.40;1.70;;;6.40;99.90;;;;;;5015604;28;20205;-59
2021/04/10 03:44:36;;;;;;;8.70;2.23;;;6.30;99.90;;;;;;5015526;28;20456;-59
2021/04/10 03:47:01;;;;;;;10.30;3.17;;;6.40;99.90;;;;;;5015645;28;20439;-59
2021/04/10 03:49:27;;;;;;;3.43;1.90;;;6.40;99.90;;;;;;5030915;28;20194;-61
2021/04/10 03:51:53;;;;;;;5.77;2.43;;;6.30;99.90;;;;;;5015502;28;20593;-62
2021/04/10 03:54:18;;;;;;;6.00;2.87;;;6.20;99.90;;;;;;5015306;28;20204;-64
2021/04/10 03:56:44;;;;;;;5.30;2.60;;;6.10;1.00;;;;;;5015216;28;20193;-64
2021/04/10 03:59:09;;;;;;;6.07;2.30;;;6.00;1.00;;;;;;5015437;28;20598;-64
2021/04/10 04:01:35;;;;;;;7.03;2.57;;;6.00;1.00;;;;;;5015357;28;20259;-64
2021/04/10 04:04:00;;;;;;;7.93;2.67;;;6.10;1.00;;;;;;5015206;28;20185;-64
2021/04/10 04:06:26;;;;;;;8.67;2.90;;;6.30;1.00;;;;;;5015228;28;20386;-64
2021/04/10 04:08:51;;;;;;;5.83;2.37;;;6.40;1.00;;;;;;5015136;28;20573;-64
2021/04/10 04:11:17;;;;;;;6.40;2.50;;;6.30;1.00;;;;;;5014986;28;20563;-65
2021/04/10 04:13:43;;;;;;;11.40;3.40;;;6.60;1.00;;;;;;5014659;28;20626;-64
2021/04/10 04:16:08;;;;;;;6.83;2.70;;;6.60;1.00;;;;;;5014836;28;20190;-65
2021/04/10 04:18:34;;;;;;;11.13;3.27;;;6.10;1.00;;;;;;5014815;28;20262;-64
2021/04/10 04:20:59;;;;;;;8.13;3.83;;;5.90;1.00;;;;;;5014851;28;20181;-65
2021/04/10 04:23:25;;;;;;;8.40;3.00;;;5.70;1.00;;;;;;5030018;28;20193;-65
2021/04/10 04:25:50;;;;;;;6.50;2.90;;;5.70;1.00;;;;;;5014720;28;20185;-65
2021/04/10 04:28:17;;;;;;;11.33;3.27;;;5.60;1.00;;;;;;5014727;28;20645;-65
2021/04/10 04:30:43;;;;;;;8.68;2.00;;;5.70;1.00;;;;;;5030075;28;20375;-63
2021/04/10 04:33:08;;;;;;;9.23;3.00;;;5.40;1.00;;;;;;5029766;28;20186;-64
2021/04/10 04:35:34;;;;;;;10.90;2.43;;;5.30;1.00;;;;;;5029944;28;20267;-63
2021/04/10 04:37:59;;;;;;;11.37;3.40;;;5.40;1.00;;;;;;5014575;28;20194;-63
2021/04/10 04:40:25;;;;;;;8.97;3.70;;;5.30;1.00;;;;;;5014563;28;20181;-64
2021/04/10 04:42:51;;;;;;;14.60;2.60;;;5.50;1.00;;;;;;5013531;28;20186;-63
2021/04/10 04:45:16;;;;;;;5.00;1.60;;;5.30;99.90;;;;;;5013996;28;20408;-63
2021/04/10 04:47:42;;;;;;;8.25;2.35;;;5.30;99.90;;;;;;5014533;28;20224;-58
2021/04/10 04:50:09;;;;;;;8.97;4.03;;;5.30;99.90;;;;;;5014436;28;20268;-58
2021/04/10 04:52:34;;;;;;;11.05;3.25;;;5.20;99.90;;;;;;5014272;28;20618;-58
2021/04/10 04:55:00;;;;;;;3.67;1.93;;;5.20;99.90;;;;;;5013972;28;20215;-58
2021/04/10 04:57:26;;;;;;;7.10;2.83;;;5.30;99.90;;;;;;5029804;28;20231;-58
2021/04/10 04:59:51;;;;;;;11.93;2.20;;;5.40;99.90;;;;;;5014149;28;20531;-58
2021/04/10 05:02:17;;;;;;;4.80;2.47;;;5.40;99.90;;;;;;5029696;28;20221;-58
2021/04/10 05:04:42;;;;;;;4.17;1.60;;;5.60;99.90;;;;;;5013839;28;20265;-64
2021/04/10 05:07:08;;;;;;;6.70;2.47;;;5.80;99.90;;;;;;5014097;28;20190;-64
2021/04/10 05:09:33;;;;;;;6.50;2.17;;;5.60;1.00;;;;;;5014152;28;20699;-63
2021/04/10 05:11:59;;;;;;;3.90;1.63;;;5.30;1.00;;;;;;5014509;28;20191;-64
2021/04/10 05:14:25;;;;;;;4.30;1.60;;;5.20;99.90;;;;;;5013621;28;20216;-64
2021/04/10 05:16:50;;;;;;;3.57;1.53;;;5.10;30.20;;;;;;5013996;28;20190;-64
2021/04/10 05:19:16;;;;;;;2.70;1.90;;;5.40;26.10;;;;;;5013903;28;20181;-64
2021/04/10 05:21:41;;;;;;;10.90;1.93;;;5.30;1.00;;;;;;5013924;28;20537;-64
2021/04/10 05:24:07;;;;;;;3.30;1.40;;;5.40;1.00;;;;;;5013632;28;20182;-64
2021/04/10 05:26:33;;;;;;;2.92;1.60;;;5.60;99.90;;;;;;5029218;28;20193;-64
2021/04/10 05:28:59;;;;;;;2.67;1.57;;;5.50;1.00;;;;;;5029220;28;20207;-64
2021/04/10 05:31:24;;;;;;;4.73;1.80;;;5.50;99.90;;;;;;5017924;28;20504;-64
2021/04/10 05:33:50;;;;;;;2.23;1.90;;;5.30;1.00;;;;;;5019948;28;20216;-64
2021/04/10 05:36:15;;;;;;;6.20;1.60;;;5.20;1.00;;;;;;5020247;28;20241;-63
2021/04/10 05:38:41;;;;;;;7.43;2.80;;;5.30;1.00;;;;;;5035574;28;20196;-63
2021/04/10 05:41:07;;;;;;;6.30;2.10;;;5.20;99.90;;;;;;5020221;28;20241;-63
2021/04/10 05:43:33;;;;;;;4.90;1.65;;;5.40;99.90;;;;;;5019944;28;20177;-63
2021/04/10 05:45:59;;;;;;;6.43;1.90;;;5.40;1.00;;;;;;5020132;28;20187;-63
2021/04/10 05:48:24;;;;;;;5.80;2.07;;;5.40;99.90;;;;;;5020105;28;20180;-63
2021/04/10 05:50:50;;;;;;;8.63;2.87;;;5.30;1.00;;;;;;5019906;28;20191;-63
2021/04/10 05:53:15;;;;;;;4.90;1.77;;;5.40;1.00;;;;;;5035513;28;20205;-63
2021/04/10 05:55:41;;;;;;;2.87;2.10;;;5.50;1.00;;;;;;5019959;28;20545;-64
2021/04/10 05:58:06;;;;;;;6.37;2.53;;;5.70;1.00;;;;;;5035510;28;20184;-64
2021/04/10 06:00:32;;;;;;;4.60;2.00;;;5.90;1.00;;;;;;5020160;28;20272;-63
2021/04/10 06:02:57;;;;;;;6.57;2.23;;;5.70;1.00;;;;;;5035517;28;20200;-63
2021/04/10 06:05:23;;;;;;;5.27;1.70;;;5.60;99.90;;;;;;5035239;28;20191;-64
2021/04/10 06:07:50;;;;;;;3.73;1.40;;;5.60;99.90;;;;;;5020407;28;20195;-64
2021/04/10 06:10:16;;;;;;;9.85;1.70;;;5.60;95.60;;;;;;5035831;28;20909;-64
2021/04/10 06:12:42;;;;;;;7.72;1.60;;;5.40;1.00;;;;;;5020232;28;20637;-64
2021/04/10 06:15:10;;;;;;;2.93;1.53;;;5.40;99.90;;;;;;5020060;28;20208;-64
2021/04/10 06:17:35;;;;;;;5.43;1.77;;;5.50;1.00;;;;;;5020055;28;20178;-64
2021/04/10 06:20:03;;;;;;;9.63;1.60;;;5.80;99.90;;;;;;5020203;28;20264;-64
2021/04/10 06:22:29;;;;;;;9.90;2.45;;;6.00;99.90;;;;;;5020217;28;20423;-61
2021/04/10 06:24:54;;;;;;;7.17;3.20;;;6.00;1.00;;;;;;5020070;28;20645;-61
2021/04/10 06:27:20;;;;;;;6.00;1.90;;;6.00;99.90;;;;;;5020408;28;20614;-58
2021/04/10 06:29:46;;;;;;;5.93;2.33;;;6.30;1.00;;;;;;5035543;28;20196;-58
2021/04/10 06:32:12;;;;;;;7.63;1.70;;;6.00;99.90;;;;;;5020049;28;20181;-63
2021/04/10 06:34:37;;;;;;;4.20;1.80;;;5.60;99.90;;;;;;5019617;28;20205;-63
2021/04/10 06:37:03;;;;;;;5.90;1.67;;;5.50;99.90;;;;;;5035639;28;20191;-63
2021/04/10 06:39:28;;;;;;;13.10;2.00;;;5.50;99.90;;;;;;5019851;28;20194;-63
2021/04/10 06:41:55;;;;;;;7.27;1.80;;;5.50;1.00;;;;;;5018755;28;20235;-61
2021/04/10 06:44:21;;;;;;;3.40;1.65;;;5.70;99.90;;;;;;5016721;28;20236;-61
2021/04/10 06:46:48;;;;;;;5.27;1.17;;;5.70;1.00;;;;;;5017116;28;20598;-63
2021/04/10 06:49:15;;;;;;;8.02;1.88;;;5.60;1.00;;;;;;5016729;28;20177;-58
2021/04/10 06:51:42;;;;;;;5.93;1.52;;;5.70;99.90;;;;;;5016957;28;20187;-61
2021/04/10 06:54:08;;;;;;;6.25;2.03;;;5.90;50.30;;;;;;5016625;28;20207;-61
2021/04/10 06:56:38;;;;;;;8.52;1.50;;;6.00;1.00;;;;;;5016801;28;20667;-61
2021/04/10 06:59:24;;;;;;;5.10;2.20;;;6.00;1.00;;;;;;5016708;28;20532;-61
2021/04/10 07:01:50;;;;;;;9.13;2.85;;;5.90;1.00;;;;;;5000152;28;20177;-61
2021/04/10 07:04:17;;;;;;;9.30;2.58;;;5.80;1.00;;;;;;5016309;28;20245;-61
2021/04/10 07:06:43;;;;;;;11.68;2.83;;;6.00;1.00;;;;;;5016498;28;20200;-63
2021/04/10 07:09:11;;;;;;;5.07;1.87;;;6.00;99.90;;;;;;5016467;28;20189;-58
2021/04/10 07:11:37;;;;;;;3.03;1.60;;;5.80;1.00;;;;;;5016386;28;20261;-58
2021/04/10 07:14:02;;;;;;;4.80;1.35;;;6.00;99.90;;;;;;5016002;28;20761;-58
2021/04/10 07:16:37;;;;;;;4.80;1.77;;;6.10;99.90;;;;;;5016250;28;20284;-58
2021/04/10 07:19:12;;;;;;;8.95;1.88;;;6.00;99.90;;;;;;5016069;28;20184;-58
2021/04/10 07:21:38;;;;;;;14.88;2.58;;;5.80;99.90;;;;;;5016040;28;20192;-58
2021/04/10 07:24:05;;;;;;;5.53;1.80;;;6.20;96.40;;;;;;5015635;28;20186;-58
2021/04/10 07:26:45;;;;;;;3.85;1.60;;;6.60;1.00;;;;;;5016072;28;20185;-58
2021/04/10 07:29:31;;;;;;;7.10;2.03;;;6.60;99.90;;;;;;5015798;28;20190;-58
2021/04/10 07:31:57;;;;;;;8.65;2.08;;;6.80;99.90;;;;;;5015556;28;20527;-58
2021/04/10 07:34:23;;;;;;;3.10;1.90;;;6.60;99.90;;;;;;5015378;28;20209;-58
2021/04/10 07:37:09;;;;;;;2.87;1.37;;;6.80;99.90;;;;;;5016734;28;20188;-58
2021/04/10 07:39:45;;;;;;;3.80;1.15;;;6.40;1.00;;;;;;5016499;28;20219;-58
2021/04/10 07:42:11;;;;;;;5.72;1.88;;;6.30;1.00;;;;;;5018278;28;20240;-59
2021/04/10 07:44:38;;;;;;;4.30;1.00;;;6.70;1.00;;;;;;5018581;28;20249;-60
2021/04/10 07:47:06;;;;;;;2.92;1.55;;;7.30;99.90;;;;;;5017276;28;20245;-59
2021/04/10 07:49:32;;;;;;;2.70;1.10;;;8.20;99.90;;;;;;5018497;28;20235;-59
2021/04/10 07:52:01;;;;;;;3.08;1.40;;;8.30;8.90;;;;;;5018997;28;20681;-62
2021/04/10 07:54:29;;;;;;;6.18;1.50;;;8.20;1.00;;;;;;5019379;28;20203;-61
2021/04/10 07:57:03;;;;;;;3.22;1.30;;;7.60;69.80;;;;;;5019118;28;20293;-61
2021/04/10 07:59:31;;;;;;;3.83;1.45;;;7.30;89.80;;;;;;5018838;28;20169;-64
2021/04/10 08:02:13;;;;;;;8.25;1.70;;;7.80;1.00;;;;;;5033585;28;20178;-61
2021/04/10 08:04:40;;;;;;;6.25;2.60;;;8.10;1.00;;;;;;5018253;28;20196;-61
2021/04/10 08:07:07;;;;;;;5.68;1.40;;;8.10;1.00;;;;;;5034923;28;20200;-61
2021/04/10 08:09:37;;;;;;;2.75;1.10;;;8.70;1.00;;;;;;5020878;28;20198;-59
2021/04/10 08:12:08;;;;;;;3.53;1.05;;;8.80;1.00;;;;;;5019042;28;20185;-59
2021/04/10 08:14:41;;;;;;;6.13;1.60;;;8.50;1.00;;;;;;5017878;28;20546;-59
2021/04/10 08:17:07;;;;;;;3.97;1.00;;;8.30;1.00;;;;;;5017766;28;20175;-64
2021/04/10 08:19:34;;;;;;;4.63;1.77;;;8.30;1.00;;;;;;5017565;28;20188;-61
2021/04/10 08:22:00;;;;;;;3.40;1.17;;;8.60;1.00;;;;;;5021848;28;20625;-61
2021/04/10 08:24:30;;;;;;;10.35;1.42;;;8.10;1.00;;;;;;5022748;28;20196;-62
2021/04/10 08:27:08;;;;;;;4.25;2.20;;;7.40;1.00;;;;;;5024479;28;20178;-62
2021/04/10 08:29:39;;;;;;;2.67;1.50;;;7.80;1.00;;;;;;5038238;28;20207;-61
2021/04/10 08:32:06;;;;;;;7.03;1.50;;;7.90;1.00;;;;;;5022586;28;20216;-61
2021/04/10 08:34:33;;;;;;;5.93;1.25;;;8.70;1.00;;;;;;5035279;28;20275;-59
2021/04/10 08:37:04;;;;;;;5.88;1.80;;;8.00;1.00;;;;;;5033517;28;20205;-58
2021/04/10 08:39:36;;;;;;;3.28;1.55;;;8.30;1.00;;;;;;5026783;28;20296;-61
2021/04/10 08:42:03;;;;;;;2.15;1.45;;;8.50;1.00;;;;;;5027450;28;20611;-61
2021/04/10 08:44:33;;;;;;;3.85;1.55;;;7.90;1.00;;;;;;5022223;28;20185;-61
2021/04/10 08:46:59;;;;;;;3.05;1.20;;;8.50;1.00;;;;;;5019783;28;20261;-61
2021/04/10 08:49:28;;;;;;;1.63;1.10;;;8.60;1.00;;;;;;5018468;28;20625;-64
2021/04/10 08:52:09;;;;;;;3.35;1.48;;;8.40;1.00;;;;;;5017764;28;20208;-62
2021/04/10 08:54:41;;;;;;;5.60;1.23;;;7.80;1.00;;;;;;5020602;28;20403;-61
2021/04/10 08:57:13;;;;;;;4.55;1.50;;;7.80;1.00;;;;;;5018515;28;20249;-65
2021/04/10 08:59:44;;;;;;;2.88;1.00;;;8.50;1.00;;;;;;5015732;28;20505;-63
2021/04/10 09:02:20;;;;;;;5.80;1.70;;;8.40;1.00;;;;;;5016780;28;20236;-62
2021/04/10 09:04:56;;;;;;;4.75;1.65;;;8.90;1.00;;;;;;5019409;28;20206;-63
2021/04/10 09:07:44;;;;;;;4.72;1.75;;;9.30;1.00;;;;;;5039943;28;20193;-68
2021/04/10 09:10:30;;;;;;;6.28;1.40;;;9.90;1.00;;;;;;5040959;28;20528;-67
2021/04/10 09:13:05;;;;;;;8.35;2.70;;;9.90;1.00;;;;;;5025640;28;20183;-68
2021/04/10 09:15:31;;;;;;;5.78;1.15;;;9.80;1.00;;;;;;5035330;28;20206;-70
2021/04/10 09:17:58;;;;;;;5.60;1.60;;;9.50;1.00;;;;;;5014468;28;20221;-67
2021/04/10 09:20:44;;;;;;;5.32;1.60;;;9.30;1.00;;;;;;5014492;28;20181;-62
2021/04/10 09:23:22;;;;;;;8.18;1.27;;;9.60;1.00;;;;;;5003707;28;20212;-64
2021/04/10 09:26:08;;;;;;;3.97;1.23;;;8.50;1.00;;;;;;5019887;28;20211;-63
2021/04/10 09:28:34;;;;;;;5.50;1.60;;;7.90;1.00;;;;;;5022819;28;20181;-66
2021/04/10 09:31:00;;;;;;;7.80;1.48;;;7.80;1.00;;;;;;5032407;28;20283;-64
2021/04/10 09:33:29;;;;;;;1.55;1.10;;;7.60;1.00;;;;;;5011387;28;20705;-65
2021/04/10 09:35:56;;;;;;;3.00;1.33;;;8.00;1.00;;;;;;5004949;28;20659;-65
2021/04/10 09:38:41;;;;;;;1.95;1.23;;;8.10;1.00;;;;;;5024658;28;20200;-65
2021/04/10 09:41:07;;;;;;;2.10;1.23;;;8.10;1.00;;;;;;5014722;28;20190;-65
2021/04/10 09:43:32;;;;;;;4.32;1.48;;;8.70;1.00;;;;;;5013272;28;20196;-65
2021/04/10 09:45:58;;;;;;;5.30;1.83;;;9.30;1.00;;;;;;5012842;28;20521;-68
2021/04/10 09:48:25;;;;;;;5.77;1.90;;;10.10;1.00;;;;;;5013123;28;20194;-68
2021/04/10 09:50:51;;;;;;;2.35;1.20;;;11.00;1.00;;;;;;5012920;28;20252;-64
2021/04/10 09:53:16;;;;;;;2.93;1.40;;;11.20;1.00;;;;;;5013595;28;20182;-64
2021/04/10 09:55:44;;;;;;;1.87;1.43;;;10.20;1.00;;;;;;5014408;28;20546;-67
2021/04/10 09:58:13;;;;;;;3.95;1.15;;;9.40;1.00;;;;;;5014618;28;20297;-69
2021/04/10 10:00:44;;;;;;;2.35;1.17;;;9.30;1.00;;;;;;5014668;28;20189;-66
2021/04/10 10:03:13;;;;;;;2.47;1.02;;;8.90;1.00;;;;;;5013300;28;20171;-65
2021/04/10 10:05:47;;;;;;;3.83;1.38;;;9.00;1.00;;;;;;5013547;28;20674;-70
2021/04/10 10:08:18;;;;;;;3.42;1.00;;;9.20;1.00;;;;;;5013738;28;20186;-71
2021/04/10 10:10:52;;;;;;;2.22;0.93;;;9.50;1.00;;;;;;5013272;28;20289;-71
2021/04/10 10:13:19;;;;;;;2.25;1.17;;;9.60;1.00;;;;;;4992818;28;20187;-70
2021/04/10 10:15:48;;;;;;;3.97;1.58;;;9.60;1.00;;;;;;5012776;28;20666;-72
2021/04/10 10:18:14;;;;;;;8.60;1.33;;;9.30;1.00;;;;;;5015793;28;20325;-71
2021/04/10 10:20:51;;;;;;;4.53;1.23;;;9.00;1.00;;;;;;5016678;28;20271;-71
2021/04/10 10:23:22;;;;;;;4.65;1.60;;;8.80;1.00;;;;;;5016936;28;20182;-71
2021/04/10 10:25:47;;;;;;;3.78;1.30;;;9.90;1.00;;;;;;5017647;28;20680;-70
2021/04/10 10:28:14;;;;;;;6.10;1.40;;;9.60;1.00;;;;;;5017355;28;20179;-70
2021/04/10 10:30:41;;;;;;;2.20;1.30;;;9.50;1.00;;;;;;5017108;28;20492;-70
2021/04/10 10:33:07;;;;;;;3.80;1.20;;;8.90;1.00;;;;;;5017207;28;20185;-69
2021/04/10 10:35:33;;;;;;;7.70;1.50;;;8.70;1.00;;;;;;5017119;28;20669;-69
2021/04/10 10:38:06;;;;;;;7.20;1.55;;;9.30;1.00;;;;;;5016672;28;20197;-68
2021/04/10 10:40:34;;;;;;;3.50;1.50;;;9.40;1.00;;;;;;5016741;28;20232;-68
2021/04/10 10:43:05;;;;;;;1.77;1.35;;;10.10;1.00;;;;;;5016793;28;20171;-70
2021/04/10 10:45:48;;;;;;;2.28;1.75;;;10.20;1.00;;;;;;5032256;28;20252;-70
2021/04/10 10:48:25;;;;;;;5.32;1.30;;;9.50;1.00;;;;;;5017130;28;20210;-67
2021/04/10 10:50:59;;;;;;;5.10;1.60;;;10.00;1.00;;;;;;5017180;28;20726;-69
2021/04/10 10:53:27;;;;;;;4.03;1.52;;;10.80;1.00;;;;;;5033105;28;20604;-70
2021/04/10 10:56:29;;;;;;;3.90;1.20;;;11.60;1.00;;;;;;5032167;28;20297;-69
2021/04/10 10:59:05;;;;;;;5.85;1.35;;;11.60;1.00;;;;;;5005704;28;20277;-68
2021/04/10 11:01:37;;;;;;;4.75;1.20;;;11.80;1.00;;;;;;5016672;28;20170;-69
2021/04/10 11:04:06;;;;;;;2.88;1.33;;;11.60;1.00;;;;;;5031806;28;20293;-68
2021/04/10 11:06:34;;;;;;;4.28;2.25;;;11.60;1.00;;;;;;5031980;28;20224;-68
2021/04/10 11:09:05;;;;;;;5.15;1.70;;;11.30;1.00;;;;;;5016250;28;20623;-68
2021/04/10 11:11:38;;;;;;;5.03;1.58;;;10.60;1.00;;;;;;5016466;28;20183;-70
2021/04/10 11:14:04;;;;;;;4.13;2.10;;;10.20;1.00;;;;;;5016106;28;20178;-71
2021/04/10 11:16:30;;;;;;;4.40;1.33;;;10.40;1.00;;;;;;5016383;28;20179;-70
2021/04/10 11:18:58;;;;;;;4.27;1.53;;;10.00;1.00;;;;;;5016121;28;20236;-69
2021/04/10 11:21:23;;;;;;;2.75;1.38;;;9.00;1.00;;;;;;5015910;28;20182;-67
2021/04/10 11:24:01;;;;;;;2.40;1.30;;;8.60;1.00;;;;;;5015846;28;20178;-67
2021/04/10 11:26:31;;;;;;;5.93;1.75;;;9.00;1.00;;;;;;5031747;28;20178;-67
2021/04/10 11:29:30;;;;;;;10.52;1.70;;;9.60;1.00;;;;;;5031420;28;20189;-67
2021/04/10 11:32:14;;;;;;;2.50;1.65;;;10.20;1.00;;;;;;5016166;28;20181;-67
2021/04/10 11:34:46;;;;;;;4.97;1.70;;;10.00;1.00;;;;;;5015840;28;20263;-69
2021/04/10 11:37:12;;;;;;;5.78;1.35;;;10.30;1.00;;;;;;5016164;28;20738;-70
2021/04/10 11:39:59;;;;;;;5.00;1.60;;;10.50;1.00;;;;;;5032031;28;20194;-68
2021/04/10 11:42:33;;;;;;;5.85;1.77;;;10.70;1.00;;;;;;5016102;28;20270;-69
2021/04/10 11:45:01;;;;;;;3.20;1.30;;;11.00;1.00;;;;;;5015718;28;20190;-69
2021/04/10 11:47:32;;;;;;;3.67;1.38;;;10.80;1.00;;;;;;5015660;28;20285;-69
2021/04/10 11:50:15;;;;;;;2.45;1.40;;;10.80;1.00;;;;;;5015859;28;20210;-69
2021/04/10 11:52:42;;;;;;;4.00;1.80;;;10.10;1.00;;;;;;5015746;28;20181;-69
2021/04/10 11:55:14;;;;;;;4.28;1.35;;;9.70;1.00;;;;;;5015522;28;20236;-69
2021/04/10 11:57:41;;;;;;;2.55;1.15;;;9.70;1.00;;;;;;5015412;28;20549;-68
2021/04/10 12:00:10;;;;;;;5.70;2.40;;;9.80;1.00;;;;;;5031252;28;20189;-70
2021/04/10 12:02:39;;;;;;;3.38;0.93;;;10.00;1.00;;;;;;5015883;28;20174;-70
2021/04/10 12:05:27;;;;;;;5.88;1.70;;;10.30;1.00;;;;;;5015576;28;20193;-69
2021/04/10 12:08:08;;;;;;;4.70;1.40;;;10.20;1.00;;;;;;5015613;28;20182;-69
2021/04/10 12:10:36;;;;;;;3.10;1.60;;;10.70;1.00;;;;;;5015625;28;20186;-69
2021/04/10 12:13:02;;;;;;;4.20;1.65;;;11.10;1.00;;;;;;5031115;28;20186;-70
2021/04/10 12:15:33;;;;;;;2.47;1.70;;;11.20;1.00;;;;;;5030379;28;20211;-69
2021/04/10 12:17:59;;;;;;;4.53;1.38;;;10.50;1.00;;;;;;5015136;28;20428;-69
2021/04/10 12:20:25;;;;;;;5.40;1.60;;;10.60;1.00;;;;;;5015409;28;20174;-70
2021/04/10 12:22:57;;;;;;;4.35;1.60;;;10.20;1.00;;;;;;5031033;28;20441;-71
2021/04/10 12:25:26;;;;;;;3.65;1.20;;;9.40;1.00;;;;;;5030958;28;20324;-69
2021/04/10 12:27:51;;;;;;;4.65;1.80;;;9.30;1.00;;;;;;4998199;28;20182;-70
2021/04/10 12:30:17;;;;;;;9.10;2.53;;;10.00;1.00;;;;;;5015322;28;20201;-69
2021/04/10 12:32:43;;;;;;;5.03;1.73;;;10.30;1.00;;;;;;5030806;28;20197;-68
2021/04/10 12:35:09;;;;;;;1.70;1.00;;;9.70;1.00;;;;;;5015117;28;20554;-69
2021/04/10 12:37:35;;;;;;;4.00;2.15;;;9.50;1.00;;;;;;5030646;28;20546;-66
2021/04/10 12:40:02;;;;;;;4.30;1.90;;;9.70;1.00;;;;;;5029769;28;20201;-70
2021/04/10 12:42:28;;;;;;;5.10;1.75;;;10.40;1.00;;;;;;5030229;28;20206;-69
2021/04/10 12:44:53;;;;;;;3.10;1.40;;;10.20;1.00;;;;;;5014112;28;20201;-68
2021/04/10 12:47:20;;;;;;;6.90;2.17;;;10.70;1.00;;;;;;5014796;28;20615;-68
2021/04/10 12:49:47;;;;;;;6.53;1.80;;;11.00;1.00;;;;;;5030073;28;20182;-68
2021/04/10 12:52:14;;;;;;;3.55;1.52;;;11.30;1.00;;;;;;5029806;28;20624;-70
2021/04/10 12:54:40;;;;;;;3.78;1.63;;;11.00;1.00;;;;;;5014438;28;20206;-69
2021/04/10 12:57:07;;;;;;;3.53;1.80;;;10.70;1.00;;;;;;5029776;28;20174;-69
2021/04/10 12:59:33;;;;;;;7.10;1.60;;;11.30;1.00;;;;;;5029934;28;20633;-69
2021/04/10 13:01:59;;;;;;;7.80;2.28;;;11.60;1.00;;;;;;5014472;28;20566;-69
2021/04/10 13:04:27;;;;;;;3.97;2.37;;;12.00;1.00;;;;;;5013048;28;20182;-70
2021/04/10 13:06:54;;;;;;;2.65;1.80;;;11.90;1.00;;;;;;5014223;28;20425;-71
2021/04/10 13:09:20;;;;;;;6.72;1.90;;;12.00;1.00;;;;;;5014184;28;20241;-67